sensor_id;sensor_type;location;lat;lon;timestamp;P1;durP1;ratioP1;P2;durP2;ratioP2
4472;SDS011;2249;42.626;23.320;2024-02-23T00:01:03;32.07;;;17.40;;
4472;SDS011;2249;42.626;23.320;2024-02-23T00:03:30;42.70;;;21.20;;
4472;SDS011;2249;42.626;23.320;2024-02-23T00:05:57;53.80;;;25.37;;
4472;SDS011;2249;42.626;23.320;2024-02-23T00:08:23;17.10;;;12.30;;
4472;SDS011;2249;42.626;23.320;2024-02-23T00:10:51;17.20;;;9.10;;
4472;SDS011;2249;42.626;23.320;2024-02-23T00:13:17;15.20;;;10.53;;
4472;SDS011;2249;42.626;23.320;2024-02-23T00:15:44;38.70;;;19.13;;
4472;SDS011;2249;42.626;23.320;2024-02-23T00:18:10;16.27;;;11.07;;
4472;SDS011;2249;42.626;23.320;2024-02-23T00:20:38;18.73;;;10.37;;
4472;SDS011;2249;42.626;23.320;2024-02-23T00:23:04;24.87;;;15.23;;
4472;SDS011;2249;42.626;23.320;2024-02-23T00:25:31;14.03;;;9.47;;
4472;SDS011;2249;42.626;23.320;2024-02-23T00:27:59;21.63;;;11.90;;
4472;SDS011;2249;42.626;23.320;2024-02-23T00:30:25;19.77;;;11.47;;
4472;SDS011;2249;42.626;23.320;2024-02-23T00:32:52;30.70;;;12.97;;
4472;SDS011;2249;42.626;23.320;2024-02-23T00:35:18;22.50;;;13.60;;
4472;SDS011;2249;42.626;23.320;2024-02-23T00:37:45;21.20;;;12.40;;
4472;SDS011;2249;42.626;23.320;2024-02-23T00:40:12;26.60;;;14.10;;
4472;SDS011;2249;42.626;23.320;2024-02-23T00:42:38;32.83;;;16.50;;
4472;SDS011;2249;42.626;23.320;2024-02-23T00:45:07;22.37;;;13.37;;
4472;SDS011;2249;42.626;23.320;2024-02-23T00:47:33;24.50;;;12.90;;
4472;SDS011;2249;42.626;23.320;2024-02-23T00:50:02;58.33;;;22.60;;
4472;SDS011;2249;42.626;23.320;2024-02-23T00:52:28;21.70;;;12.60;;
4472;SDS011;2249;42.626;23.320;2024-02-23T00:54:55;15.83;;;11.47;;
4472;SDS011;2249;42.626;23.320;2024-02-23T00:57:21;16.80;;;11.30;;
4472;SDS011;2249;42.626;23.320;2024-02-23T00:59:52;18.33;;;11.43;;
4472;SDS011;2249;42.626;23.320;2024-02-23T01:02:20;133.07;;;42.60;;
4472;SDS011;2249;42.626;23.320;2024-02-23T01:04:46;24.00;;;12.80;;
4472;SDS011;2249;42.626;23.320;2024-02-23T01:07:13;15.37;;;10.40;;
4472;SDS011;2249;42.626;23.320;2024-02-23T01:09:40;19.30;;;9.67;;
4472;SDS011;2249;42.626;23.320;2024-02-23T01:12:06;27.50;;;12.47;;
4472;SDS011;2249;42.626;23.320;2024-02-23T01:14:33;15.97;;;10.63;;
4472;SDS011;2249;42.626;23.320;2024-02-23T01:17:00;21.93;;;11.13;;
4472;SDS011;2249;42.626;23.320;2024-02-23T01:19:28;20.90;;;12.30;;
4472;SDS011;2249;42.626;23.320;2024-02-23T01:21:54;24.80;;;14.70;;
4472;SDS011;2249;42.626;23.320;2024-02-23T01:24:24;34.20;;;15.50;;
4472;SDS011;2249;42.626;23.320;2024-02-23T01:26:52;17.23;;;11.57;;
4472;SDS011;2249;42.626;23.320;2024-02-23T01:29:19;32.10;;;16.10;;
4472;SDS011;2249;42.626;23.320;2024-02-23T01:31:45;28.43;;;16.23;;
4472;SDS011;2249;42.626;23.320;2024-02-23T01:34:12;22.67;;;14.50;;
4472;SDS011;2249;42.626;23.320;2024-02-23T01:36:39;37.33;;;20.23;;
4472;SDS011;2249;42.626;23.320;2024-02-23T01:39:06;58.20;;;28.10;;
4472;SDS011;2249;42.626;23.320;2024-02-23T01:41:33;69.00;;;29.20;;
4472;SDS011;2249;42.626;23.320;2024-02-23T01:43:59;51.03;;;22.83;;
4472;SDS011;2249;42.626;23.320;2024-02-23T01:46:26;35.73;;;17.80;;
4472;SDS011;2249;42.626;23.320;2024-02-23T01:48:52;27.87;;;13.90;;
4472;SDS011;2249;42.626;23.320;2024-02-23T01:51:19;28.50;;;14.27;;
4472;SDS011;2249;42.626;23.320;2024-02-23T01:53:47;26.43;;;12.10;;
4472;SDS011;2249;42.626;23.320;2024-02-23T01:56:13;14.83;;;10.10;;
4472;SDS011;2249;42.626;23.320;2024-02-23T01:58:42;16.03;;;10.60;;
4472;SDS011;2249;42.626;23.320;2024-02-23T02:01:09;16.83;;;11.17;;
4472;SDS011;2249;42.626;23.320;2024-02-23T02:03:36;47.17;;;23.20;;
4472;SDS011;2249;42.626;23.320;2024-02-23T02:06:04;24.50;;;13.23;;
4472;SDS011;2249;42.626;23.320;2024-02-23T02:08:30;29.17;;;13.60;;
4472;SDS011;2249;42.626;23.320;2024-02-23T02:10:58;16.67;;;10.57;;
4472;SDS011;2249;42.626;23.320;2024-02-23T02:13:25;18.27;;;11.83;;
4472;SDS011;2249;42.626;23.320;2024-02-23T02:15:51;21.93;;;11.40;;
4472;SDS011;2249;42.626;23.320;2024-02-23T02:18:18;23.50;;;13.10;;
4472;SDS011;2249;42.626;23.320;2024-02-23T02:20:51;28.00;;;14.53;;
4472;SDS011;2249;42.626;23.320;2024-02-23T02:23:18;21.47;;;13.50;;
4472;SDS011;2249;42.626;23.320;2024-02-23T02:25:45;17.53;;;12.10;;
4472;SDS011;2249;42.626;23.320;2024-02-23T02:28:12;17.70;;;12.30;;
4472;SDS011;2249;42.626;23.320;2024-02-23T02:30:39;27.63;;;13.00;;
4472;SDS011;2249;42.626;23.320;2024-02-23T02:33:05;23.20;;;13.17;;
4472;SDS011;2249;42.626;23.320;2024-02-23T02:35:32;20.97;;;12.33;;
4472;SDS011;2249;42.626;23.320;2024-02-23T02:37:58;18.27;;;12.73;;
4472;SDS011;2249;42.626;23.320;2024-02-23T02:40:25;15.70;;;10.60;;
4472;SDS011;2249;42.626;23.320;2024-02-23T02:42:51;43.27;;;19.50;;
4472;SDS011;2249;42.626;23.320;2024-02-23T02:45:19;15.63;;;11.27;;
4472;SDS011;2249;42.626;23.320;2024-02-23T02:47:45;19.50;;;12.13;;
4472;SDS011;2249;42.626;23.320;2024-02-23T02:50:12;24.53;;;15.47;;
4472;SDS011;2249;42.626;23.320;2024-02-23T02:52:38;18.97;;;12.63;;
4472;SDS011;2249;42.626;23.320;2024-02-23T02:55:05;14.43;;;11.00;;
4472;SDS011;2249;42.626;23.320;2024-02-23T02:57:32;15.00;;;10.33;;
4472;SDS011;2249;42.626;23.320;2024-02-23T02:59:58;18.97;;;11.07;;
4472;SDS011;2249;42.626;23.320;2024-02-23T03:02:26;25.73;;;14.17;;
4472;SDS011;2249;42.626;23.320;2024-02-23T03:04:52;18.40;;;11.87;;
4472;SDS011;2249;42.626;23.320;2024-02-23T03:07:20;13.77;;;10.43;;
4472;SDS011;2249;42.626;23.320;2024-02-23T03:09:47;14.87;;;11.03;;
4472;SDS011;2249;42.626;23.320;2024-02-23T03:12:14;15.80;;;11.20;;
4472;SDS011;2249;42.626;23.320;2024-02-23T03:14:41;19.20;;;11.33;;
4472;SDS011;2249;42.626;23.320;2024-02-23T03:17:07;17.33;;;12.17;;
4472;SDS011;2249;42.626;23.320;2024-02-23T03:19:35;16.87;;;11.87;;
4472;SDS011;2249;42.626;23.320;2024-02-23T03:22:02;16.03;;;11.30;;
4472;SDS011;2249;42.626;23.320;2024-02-23T03:24:28;15.10;;;10.93;;
4472;SDS011;2249;42.626;23.320;2024-02-23T03:26:55;20.10;;;12.60;;
4472;SDS011;2249;42.626;23.320;2024-02-23T03:29:21;15.73;;;11.50;;
4472;SDS011;2249;42.626;23.320;2024-02-23T03:31:49;16.63;;;9.87;;
4472;SDS011;2249;42.626;23.320;2024-02-23T03:34:15;12.50;;;9.27;;
4472;SDS011;2249;42.626;23.320;2024-02-23T03:36:43;13.90;;;9.00;;
4472;SDS011;2249;42.626;23.320;2024-02-23T03:39:10;12.40;;;9.10;;
4472;SDS011;2249;42.626;23.320;2024-02-23T03:41:37;16.87;;;9.67;;
4472;SDS011;2249;42.626;23.320;2024-02-23T03:44:03;14.17;;;9.73;;
4472;SDS011;2249;42.626;23.320;2024-02-23T03:46:30;24.47;;;15.50;;
4472;SDS011;2249;42.626;23.320;2024-02-23T03:48:56;13.77;;;9.27;;
4472;SDS011;2249;42.626;23.320;2024-02-23T03:51:23;15.90;;;10.00;;
4472;SDS011;2249;42.626;23.320;2024-02-23T03:53:51;16.40;;;11.10;;
4472;SDS011;2249;42.626;23.320;2024-02-23T03:56:16;14.83;;;10.27;;
4472;SDS011;2249;42.626;23.320;2024-02-23T03:58:43;14.30;;;8.73;;
4472;SDS011;2249;42.626;23.320;2024-02-23T04:01:09;11.20;;;9.23;;
4472;SDS011;2249;42.626;23.320;2024-02-23T04:03:35;18.30;;;11.97;;
4472;SDS011;2249;42.626;23.320;2024-02-23T04:06:02;17.57;;;11.87;;
4472;SDS011;2249;42.626;23.320;2024-02-23T04:08:29;21.80;;;14.87;;
4472;SDS011;2249;42.626;23.320;2024-02-23T04:10:56;16.63;;;11.70;;
4472;SDS011;2249;42.626;23.320;2024-02-23T04:13:23;15.10;;;10.60;;
4472;SDS011;2249;42.626;23.320;2024-02-23T04:15:49;16.33;;;9.93;;
4472;SDS011;2249;42.626;23.320;2024-02-23T04:18:16;17.63;;;11.93;;
4472;SDS011;2249;42.626;23.320;2024-02-23T04:20:42;17.03;;;10.97;;
4472;SDS011;2249;42.626;23.320;2024-02-23T04:23:09;16.93;;;11.43;;
4472;SDS011;2249;42.626;23.320;2024-02-23T04:25:35;20.30;;;11.50;;
4472;SDS011;2249;42.626;23.320;2024-02-23T04:28:03;15.80;;;11.03;;
4472;SDS011;2249;42.626;23.320;2024-02-23T04:30:30;18.40;;;12.47;;
4472;SDS011;2249;42.626;23.320;2024-02-23T04:32:56;50.00;;;20.90;;
4472;SDS011;2249;42.626;23.320;2024-02-23T04:35:23;20.60;;;12.87;;
4472;SDS011;2249;42.626;23.320;2024-02-23T04:37:49;17.77;;;12.30;;
4472;SDS011;2249;42.626;23.320;2024-02-23T04:40:16;21.57;;;13.60;;
4472;SDS011;2249;42.626;23.320;2024-02-23T04:42:43;19.43;;;12.07;;
4472;SDS011;2249;42.626;23.320;2024-02-23T04:45:11;17.77;;;10.63;;
4472;SDS011;2249;42.626;23.320;2024-02-23T04:47:37;23.27;;;13.47;;
4472;SDS011;2249;42.626;23.320;2024-02-23T04:50:06;19.77;;;12.80;;
4472;SDS011;2249;42.626;23.320;2024-02-23T04:52:32;18.97;;;10.10;;
4472;SDS011;2249;42.626;23.320;2024-02-23T04:54:59;23.60;;;14.80;;
4472;SDS011;2249;42.626;23.320;2024-02-23T04:57:25;26.87;;;16.03;;
4472;SDS011;2249;42.626;23.320;2024-02-23T04:59:52;12.60;;;8.70;;
4472;SDS011;2249;42.626;23.320;2024-02-23T05:02:19;13.50;;;10.00;;
4472;SDS011;2249;42.626;23.320;2024-02-23T05:04:46;16.23;;;10.97;;
4472;SDS011;2249;42.626;23.320;2024-02-23T05:07:12;19.67;;;13.80;;
4472;SDS011;2249;42.626;23.320;2024-02-23T05:09:39;16.00;;;10.80;;
4472;SDS011;2249;42.626;23.320;2024-02-23T05:12:06;18.23;;;11.37;;
4472;SDS011;2249;42.626;23.320;2024-02-23T05:14:33;16.27;;;11.73;;
4472;SDS011;2249;42.626;23.320;2024-02-23T05:16:59;16.23;;;11.73;;
4472;SDS011;2249;42.626;23.320;2024-02-23T05:19:27;17.23;;;12.33;;
4472;SDS011;2249;42.626;23.320;2024-02-23T05:21:54;25.03;;;14.93;;
4472;SDS011;2249;42.626;23.320;2024-02-23T05:24:20;18.40;;;13.00;;
4472;SDS011;2249;42.626;23.320;2024-02-23T05:26:46;14.23;;;10.10;;
4472;SDS011;2249;42.626;23.320;2024-02-23T05:29:13;18.37;;;12.27;;
4472;SDS011;2249;42.626;23.320;2024-02-23T05:31:47;22.43;;;11.80;;
4472;SDS011;2249;42.626;23.320;2024-02-23T05:34:14;17.00;;;11.13;;
4472;SDS011;2249;42.626;23.320;2024-02-23T05:36:42;13.00;;;9.40;;
4472;SDS011;2249;42.626;23.320;2024-02-23T05:39:08;15.40;;;9.83;;
4472;SDS011;2249;42.626;23.320;2024-02-23T05:41:35;26.33;;;14.17;;
4472;SDS011;2249;42.626;23.320;2024-02-23T05:44:01;19.53;;;11.20;;
4472;SDS011;2249;42.626;23.320;2024-02-23T05:46:30;23.30;;;13.10;;
4472;SDS011;2249;42.626;23.320;2024-02-23T05:48:57;27.33;;;14.60;;
4472;SDS011;2249;42.626;23.320;2024-02-23T05:51:23;15.07;;;11.03;;
4472;SDS011;2249;42.626;23.320;2024-02-23T05:53:51;18.93;;;11.57;;
4472;SDS011;2249;42.626;23.320;2024-02-23T05:56:17;14.17;;;9.53;;
4472;SDS011;2249;42.626;23.320;2024-02-23T05:58:44;16.20;;;9.80;;
4472;SDS011;2249;42.626;23.320;2024-02-23T06:01:10;15.80;;;11.10;;
4472;SDS011;2249;42.626;23.320;2024-02-23T06:03:37;14.83;;;11.17;;
4472;SDS011;2249;42.626;23.320;2024-02-23T06:06:06;24.17;;;14.00;;
4472;SDS011;2249;42.626;23.320;2024-02-23T06:08:33;20.73;;;11.33;;
4472;SDS011;2249;42.626;23.320;2024-02-23T06:11:00;19.33;;;11.10;;
4472;SDS011;2249;42.626;23.320;2024-02-23T06:13:28;13.63;;;9.70;;
4472;SDS011;2249;42.626;23.320;2024-02-23T06:15:55;13.53;;;9.80;;
4472;SDS011;2249;42.626;23.320;2024-02-23T06:18:21;14.63;;;10.70;;
4472;SDS011;2249;42.626;23.320;2024-02-23T06:20:48;16.23;;;10.90;;
4472;SDS011;2249;42.626;23.320;2024-02-23T06:23:15;13.70;;;10.33;;
4472;SDS011;2249;42.626;23.320;2024-02-23T06:25:41;15.00;;;11.00;;
4472;SDS011;2249;42.626;23.320;2024-02-23T06:28:10;16.33;;;11.00;;
4472;SDS011;2249;42.626;23.320;2024-02-23T06:30:37;16.40;;;11.00;;
4472;SDS011;2249;42.626;23.320;2024-02-23T06:33:03;16.37;;;11.90;;
4472;SDS011;2249;42.626;23.320;2024-02-23T06:35:30;15.20;;;11.13;;
4472;SDS011;2249;42.626;23.320;2024-02-23T06:37:57;14.23;;;10.27;;
4472;SDS011;2249;42.626;23.320;2024-02-23T06:40:23;16.33;;;11.23;;
4472;SDS011;2249;42.626;23.320;2024-02-23T06:42:50;20.07;;;11.20;;
4472;SDS011;2249;42.626;23.320;2024-02-23T06:45:18;18.63;;;11.50;;
4472;SDS011;2249;42.626;23.320;2024-02-23T06:47:50;16.03;;;9.87;;
4472;SDS011;2249;42.626;23.320;2024-02-23T06:50:17;13.17;;;10.37;;
4472;SDS011;2249;42.626;23.320;2024-02-23T06:52:43;12.13;;;9.83;;
4472;SDS011;2249;42.626;23.320;2024-02-23T06:55:10;15.27;;;11.10;;
4472;SDS011;2249;42.626;23.320;2024-02-23T06:57:36;14.63;;;10.83;;
4472;SDS011;2249;42.626;23.320;2024-02-23T07:00:03;15.70;;;10.03;;
4472;SDS011;2249;42.626;23.320;2024-02-23T07:02:32;14.70;;;10.70;;
4472;SDS011;2249;42.626;23.320;2024-02-23T07:05:01;15.73;;;10.20;;
4472;SDS011;2249;42.626;23.320;2024-02-23T07:07:29;15.33;;;9.70;;
4472;SDS011;2249;42.626;23.320;2024-02-23T07:09:58;16.37;;;10.57;;
4472;SDS011;2249;42.626;23.320;2024-02-23T07:12:24;14.10;;;10.80;;
4472;SDS011;2249;42.626;23.320;2024-02-23T07:14:52;15.77;;;10.27;;
4472;SDS011;2249;42.626;23.320;2024-02-23T07:17:18;11.03;;;8.43;;
4472;SDS011;2249;42.626;23.320;2024-02-23T07:19:46;17.67;;;10.50;;
4472;SDS011;2249;42.626;23.320;2024-02-23T07:22:13;15.53;;;11.53;;
4472;SDS011;2249;42.626;23.320;2024-02-23T07:24:40;16.53;;;10.60;;
4472;SDS011;2249;42.626;23.320;2024-02-23T07:27:07;16.87;;;12.20;;
4472;SDS011;2249;42.626;23.320;2024-02-23T07:29:34;14.43;;;11.20;;
4472;SDS011;2249;42.626;23.320;2024-02-23T07:32:00;16.70;;;10.77;;
4472;SDS011;2249;42.626;23.320;2024-02-23T07:34:27;18.33;;;12.77;;
4472;SDS011;2249;42.626;23.320;2024-02-23T07:36:54;17.90;;;12.87;;
4472;SDS011;2249;42.626;23.320;2024-02-23T07:39:21;14.93;;;10.83;;
4472;SDS011;2249;42.626;23.320;2024-02-23T07:41:47;16.97;;;11.50;;
4472;SDS011;2249;42.626;23.320;2024-02-23T07:44:14;19.03;;;13.30;;
4472;SDS011;2249;42.626;23.320;2024-02-23T07:46:40;17.83;;;11.60;;
4472;SDS011;2249;42.626;23.320;2024-02-23T07:49:08;21.07;;;12.30;;
4472;SDS011;2249;42.626;23.320;2024-02-23T07:51:34;15.93;;;11.10;;
4472;SDS011;2249;42.626;23.320;2024-02-23T07:54:02;17.17;;;12.20;;
4472;SDS011;2249;42.626;23.320;2024-02-23T07:56:30;15.37;;;12.00;;
4472;SDS011;2249;42.626;23.320;2024-02-23T07:58:57;15.77;;;12.20;;
4472;SDS011;2249;42.626;23.320;2024-02-23T08:01:24;24.80;;;13.70;;
4472;SDS011;2249;42.626;23.320;2024-02-23T08:03:51;17.63;;;12.03;;
4472;SDS011;2249;42.626;23.320;2024-02-23T08:06:17;18.90;;;14.10;;
4472;SDS011;2249;42.626;23.320;2024-02-23T08:08:43;15.20;;;11.93;;
4472;SDS011;2249;42.626;23.320;2024-02-23T08:11:11;21.87;;;14.03;;
4472;SDS011;2249;42.626;23.320;2024-02-23T08:13:38;21.00;;;12.20;;
4472;SDS011;2249;42.626;23.320;2024-02-23T08:16:05;17.47;;;13.33;;
4472;SDS011;2249;42.626;23.320;2024-02-23T08:18:32;20.50;;;14.30;;
4472;SDS011;2249;42.626;23.320;2024-02-23T08:20:58;18.60;;;11.60;;
4472;SDS011;2249;42.626;23.320;2024-02-23T08:23:27;21.60;;;15.13;;
4472;SDS011;2249;42.626;23.320;2024-02-23T08:25:53;24.00;;;14.40;;
4472;SDS011;2249;42.626;23.320;2024-02-23T08:28:22;18.70;;;12.20;;
4472;SDS011;2249;42.626;23.320;2024-02-23T08:30:49;20.77;;;12.10;;
4472;SDS011;2249;42.626;23.320;2024-02-23T08:33:15;17.63;;;12.60;;
4472;SDS011;2249;42.626;23.320;2024-02-23T08:35:42;19.70;;;14.23;;
4472;SDS011;2249;42.626;23.320;2024-02-23T08:38:08;22.03;;;14.10;;
4472;SDS011;2249;42.626;23.320;2024-02-23T08:40:35;20.70;;;14.07;;
4472;SDS011;2249;42.626;23.320;2024-02-23T08:43:01;21.33;;;14.10;;
4472;SDS011;2249;42.626;23.320;2024-02-23T08:45:29;30.50;;;15.73;;
4472;SDS011;2249;42.626;23.320;2024-02-23T08:47:56;24.03;;;15.00;;
4472;SDS011;2249;42.626;23.320;2024-02-23T08:50:23;21.63;;;14.87;;
4472;SDS011;2249;42.626;23.320;2024-02-23T08:52:49;27.50;;;14.17;;
4472;SDS011;2249;42.626;23.320;2024-02-23T08:55:16;19.07;;;12.90;;
4472;SDS011;2249;42.626;23.320;2024-02-23T08:57:42;23.90;;;13.57;;
4472;SDS011;2249;42.626;23.320;2024-02-23T09:00:09;20.23;;;12.87;;
4472;SDS011;2249;42.626;23.320;2024-02-23T09:02:37;17.60;;;12.00;;
4472;SDS011;2249;42.626;23.320;2024-02-23T09:05:04;18.57;;;12.67;;
4472;SDS011;2249;42.626;23.320;2024-02-23T09:07:31;16.20;;;12.10;;
4472;SDS011;2249;42.626;23.320;2024-02-23T09:09:57;22.47;;;10.90;;
4472;SDS011;2249;42.626;23.320;2024-02-23T09:12:24;16.40;;;11.83;;
4472;SDS011;2249;42.626;23.320;2024-02-23T09:14:51;17.70;;;10.57;;
4472;SDS011;2249;42.626;23.320;2024-02-23T09:17:17;16.23;;;10.33;;
4472;SDS011;2249;42.626;23.320;2024-02-23T09:19:47;17.23;;;10.17;;
4472;SDS011;2249;42.626;23.320;2024-02-23T09:22:13;15.47;;;10.47;;
4472;SDS011;2249;42.626;23.320;2024-02-23T09:24:40;20.47;;;11.27;;
4472;SDS011;2249;42.626;23.320;2024-02-23T09:27:07;15.10;;;10.97;;
4472;SDS011;2249;42.626;23.320;2024-02-23T09:29:33;19.60;;;10.23;;
4472;SDS011;2249;42.626;23.320;2024-02-23T09:32:00;13.18;;;10.48;;
4472;SDS011;2249;42.626;23.320;2024-02-23T09:34:26;14.37;;;9.43;;
4472;SDS011;2249;42.626;23.320;2024-02-23T09:36:55;15.43;;;9.63;;
4472;SDS011;2249;42.626;23.320;2024-02-23T09:39:22;17.92;;;9.95;;
4472;SDS011;2249;42.626;23.320;2024-02-23T09:41:51;15.90;;;9.40;;
4472;SDS011;2249;42.626;23.320;2024-02-23T09:44:18;11.73;;;7.93;;
4472;SDS011;2249;42.626;23.320;2024-02-23T09:46:45;9.30;;;6.80;;
4472;SDS011;2249;42.626;23.320;2024-02-23T09:49:12;9.90;;;6.30;;
4472;SDS011;2249;42.626;23.320;2024-02-23T09:51:40;10.20;;;6.77;;
4472;SDS011;2249;42.626;23.320;2024-02-23T09:54:08;9.33;;;6.37;;
4472;SDS011;2249;42.626;23.320;2024-02-23T09:56:34;7.40;;;5.30;;
4472;SDS011;2249;42.626;23.320;2024-02-23T09:59:02;8.40;;;5.60;;
4472;SDS011;2249;42.626;23.320;2024-02-23T10:01:29;10.80;;;5.63;;
4472;SDS011;2249;42.626;23.320;2024-02-23T10:03:58;8.53;;;5.20;;
4472;SDS011;2249;42.626;23.320;2024-02-23T10:06:25;6.90;;;5.30;;
4472;SDS011;2249;42.626;23.320;2024-02-23T10:08:51;14.13;;;6.37;;
4472;SDS011;2249;42.626;23.320;2024-02-23T10:11:20;9.10;;;4.57;;
4472;SDS011;2249;42.626;23.320;2024-02-23T10:13:47;7.70;;;4.00;;
4472;SDS011;2249;42.626;23.320;2024-02-23T10:16:14;8.90;;;4.33;;
4472;SDS011;2249;42.626;23.320;2024-02-23T10:18:41;11.17;;;4.30;;
4472;SDS011;2249;42.626;23.320;2024-02-23T10:21:07;6.50;;;4.30;;
4472;SDS011;2249;42.626;23.320;2024-02-23T10:23:34;4.67;;;3.70;;
4472;SDS011;2249;42.626;23.320;2024-02-23T10:26:00;5.87;;;3.60;;
4472;SDS011;2249;42.626;23.320;2024-02-23T10:28:28;5.40;;;4.47;;
4472;SDS011;2249;42.626;23.320;2024-02-23T10:30:54;4.77;;;3.17;;
4472;SDS011;2249;42.626;23.320;2024-02-23T10:33:22;5.07;;;4.30;;
4472;SDS011;2249;42.626;23.320;2024-02-23T10:35:48;7.45;;;3.40;;
4472;SDS011;2249;42.626;23.320;2024-02-23T10:38:17;4.83;;;3.57;;
4472;SDS011;2249;42.626;23.320;2024-02-23T10:40:45;8.90;;;5.00;;
4472;SDS011;2249;42.626;23.320;2024-02-23T10:43:15;5.63;;;3.47;;
4472;SDS011;2249;42.626;23.320;2024-02-23T10:45:44;4.10;;;3.40;;
4472;SDS011;2249;42.626;23.320;2024-02-23T10:48:11;4.50;;;3.40;;
4472;SDS011;2249;42.626;23.320;2024-02-23T10:50:39;3.75;;;3.28;;
4472;SDS011;2249;42.626;23.320;2024-02-23T10:53:09;4.20;;;3.30;;
4472;SDS011;2249;42.626;23.320;2024-02-23T10:55:36;3.63;;;2.85;;
4472;SDS011;2249;42.626;23.320;2024-02-23T10:58:03;4.07;;;3.50;;
4472;SDS011;2249;42.626;23.320;2024-02-23T11:00:33;4.03;;;3.60;;
4472;SDS011;2249;42.626;23.320;2024-02-23T11:03:00;4.40;;;3.33;;
4472;SDS011;2249;42.626;23.320;2024-02-23T11:05:28;6.30;;;3.30;;
4472;SDS011;2249;42.626;23.320;2024-02-23T11:07:55;3.07;;;2.63;;
4472;SDS011;2249;42.626;23.320;2024-02-23T11:10:22;3.87;;;3.20;;
4472;SDS011;2249;42.626;23.320;2024-02-23T11:12:56;5.20;;;3.37;;
4472;SDS011;2249;42.626;23.320;2024-02-23T11:15:26;3.50;;;3.00;;
4472;SDS011;2249;42.626;23.320;2024-02-23T11:17:53;5.53;;;3.63;;
4472;SDS011;2249;42.626;23.320;2024-02-23T11:20:21;4.23;;;3.30;;
4472;SDS011;2249;42.626;23.320;2024-02-23T11:22:51;4.40;;;3.17;;
4472;SDS011;2249;42.626;23.320;2024-02-23T11:25:18;3.83;;;3.30;;
4472;SDS011;2249;42.626;23.320;2024-02-23T11:27:48;4.07;;;3.10;;
4472;SDS011;2249;42.626;23.320;2024-02-23T11:30:16;4.73;;;2.90;;
4472;SDS011;2249;42.626;23.320;2024-02-23T11:32:44;5.63;;;2.80;;
4472;SDS011;2249;42.626;23.320;2024-02-23T11:35:12;3.47;;;2.90;;
4472;SDS011;2249;42.626;23.320;2024-02-23T11:37:47;5.90;;;3.03;;
4472;SDS011;2249;42.626;23.320;2024-02-23T11:40:14;4.07;;;3.10;;
4472;SDS011;2249;42.626;23.320;2024-02-23T11:42:41;7.63;;;3.20;;
4472;SDS011;2249;42.626;23.320;2024-02-23T11:45:08;4.63;;;3.03;;
4472;SDS011;2249;42.626;23.320;2024-02-23T11:47:34;4.83;;;3.20;;
4472;SDS011;2249;42.626;23.320;2024-02-23T11:50:01;6.43;;;3.47;;
4472;SDS011;2249;42.626;23.320;2024-02-23T11:52:27;5.93;;;3.77;;
4472;SDS011;2249;42.626;23.320;2024-02-23T11:54:55;4.13;;;3.20;;
4472;SDS011;2249;42.626;23.320;2024-02-23T11:57:22;4.80;;;3.80;;
4472;SDS011;2249;42.626;23.320;2024-02-23T11:59:50;7.90;;;3.30;;
4472;SDS011;2249;42.626;23.320;2024-02-23T12:02:17;4.20;;;3.03;;
4472;SDS011;2249;42.626;23.320;2024-02-23T12:04:43;9.07;;;3.43;;
4472;SDS011;2249;42.626;23.320;2024-02-23T12:07:10;8.53;;;3.40;;
4472;SDS011;2249;42.626;23.320;2024-02-23T12:09:37;6.60;;;3.70;;
4472;SDS011;2249;42.626;23.320;2024-02-23T12:12:07;5.43;;;3.10;;
4472;SDS011;2249;42.626;23.320;2024-02-23T12:14:35;4.40;;;3.30;;
4472;SDS011;2249;42.626;23.320;2024-02-23T12:17:01;4.40;;;3.10;;
4472;SDS011;2249;42.626;23.320;2024-02-23T12:19:29;5.25;;;3.53;;
4472;SDS011;2249;42.626;23.320;2024-02-23T12:21:59;7.03;;;2.80;;
4472;SDS011;2249;42.626;23.320;2024-02-23T12:24:25;4.13;;;3.43;;
4472;SDS011;2249;42.626;23.320;2024-02-23T12:26:53;3.90;;;3.00;;
4472;SDS011;2249;42.626;23.320;2024-02-23T12:29:21;4.20;;;2.63;;
4472;SDS011;2249;42.626;23.320;2024-02-23T12:31:47;3.93;;;2.40;;
4472;SDS011;2249;42.626;23.320;2024-02-23T12:34:14;5.03;;;3.10;;
4472;SDS011;2249;42.626;23.320;2024-02-23T12:36:40;3.33;;;2.80;;
4472;SDS011;2249;42.626;23.320;2024-02-23T12:39:07;5.20;;;2.90;;
4472;SDS011;2249;42.626;23.320;2024-02-23T12:41:33;5.10;;;3.07;;
4472;SDS011;2249;42.626;23.320;2024-02-23T12:44:00;3.30;;;2.90;;
4472;SDS011;2249;42.626;23.320;2024-02-23T12:46:28;3.83;;;2.30;;
4472;SDS011;2249;42.626;23.320;2024-02-23T12:48:54;3.00;;;2.50;;
4472;SDS011;2249;42.626;23.320;2024-02-23T12:51:24;3.30;;;2.70;;
4472;SDS011;2249;42.626;23.320;2024-02-23T12:53:51;6.90;;;2.90;;
4472;SDS011;2249;42.626;23.320;2024-02-23T12:56:17;3.43;;;2.63;;
4472;SDS011;2249;42.626;23.320;2024-02-23T12:58:45;4.70;;;2.80;;
4472;SDS011;2249;42.626;23.320;2024-02-23T13:01:11;4.43;;;2.80;;
4472;SDS011;2249;42.626;23.320;2024-02-23T13:03:39;3.53;;;3.23;;
4472;SDS011;2249;42.626;23.320;2024-02-23T13:06:06;3.83;;;2.70;;
4472;SDS011;2249;42.626;23.320;2024-02-23T13:08:33;4.60;;;2.78;;
4472;SDS011;2249;42.626;23.320;2024-02-23T13:11:00;3.40;;;2.40;;
4472;SDS011;2249;42.626;23.320;2024-02-23T13:13:27;7.23;;;2.80;;
4472;SDS011;2249;42.626;23.320;2024-02-23T13:15:54;4.55;;;3.10;;
4472;SDS011;2249;42.626;23.320;2024-02-23T13:18:22;5.23;;;3.20;;
4472;SDS011;2249;42.626;23.320;2024-02-23T13:20:50;8.40;;;6.60;;
4472;SDS011;2249;42.626;23.320;2024-02-23T13:23:16;7.43;;;6.30;;
4472;SDS011;2249;42.626;23.320;2024-02-23T13:25:43;6.33;;;4.57;;
4472;SDS011;2249;42.626;23.320;2024-02-23T13:28:11;6.90;;;3.50;;
4472;SDS011;2249;42.626;23.320;2024-02-23T13:30:37;3.57;;;2.60;;
4472;SDS011;2249;42.626;23.320;2024-02-23T13:33:04;4.17;;;3.20;;
4472;SDS011;2249;42.626;23.320;2024-02-23T13:35:31;3.20;;;2.70;;
4472;SDS011;2249;42.626;23.320;2024-02-23T13:37:59;4.40;;;2.93;;
4472;SDS011;2249;42.626;23.320;2024-02-23T13:40:28;4.07;;;2.90;;
4472;SDS011;2249;42.626;23.320;2024-02-23T13:42:54;6.43;;;4.07;;
4472;SDS011;2249;42.626;23.320;2024-02-23T13:45:21;4.03;;;2.90;;
4472;SDS011;2249;42.626;23.320;2024-02-23T13:47:55;6.90;;;4.90;;
4472;SDS011;2249;42.626;23.320;2024-02-23T13:50:22;3.90;;;3.23;;
4472;SDS011;2249;42.626;23.320;2024-02-23T13:52:48;6.80;;;3.42;;
4472;SDS011;2249;42.626;23.320;2024-02-23T13:55:16;4.63;;;3.37;;
4472;SDS011;2249;42.626;23.320;2024-02-23T13:57:44;4.43;;;2.83;;
4472;SDS011;2249;42.626;23.320;2024-02-23T14:00:11;3.97;;;3.10;;
4472;SDS011;2249;42.626;23.320;2024-02-23T14:02:38;5.30;;;3.83;;
4472;SDS011;2249;42.626;23.320;2024-02-23T14:05:06;3.57;;;3.00;;
4472;SDS011;2249;42.626;23.320;2024-02-23T14:07:32;6.07;;;4.10;;
4472;SDS011;2249;42.626;23.320;2024-02-23T14:09:59;5.78;;;3.50;;
4472;SDS011;2249;42.626;23.320;2024-02-23T14:12:27;7.10;;;3.33;;
4472;SDS011;2249;42.626;23.320;2024-02-23T14:14:54;6.30;;;2.77;;
4472;SDS011;2249;42.626;23.320;2024-02-23T14:17:21;5.70;;;3.15;;
4472;SDS011;2249;42.626;23.320;2024-02-23T14:19:47;5.10;;;2.67;;
4472;SDS011;2249;42.626;23.320;2024-02-23T14:22:15;9.98;;;3.20;;
4472;SDS011;2249;42.626;23.320;2024-02-23T14:24:42;8.77;;;3.00;;
4472;SDS011;2249;42.626;23.320;2024-02-23T14:27:08;9.40;;;3.10;;
4472;SDS011;2249;42.626;23.320;2024-02-23T14:29:36;5.87;;;4.70;;
4472;SDS011;2249;42.626;23.320;2024-02-23T14:32:03;7.83;;;3.37;;
4472;SDS011;2249;42.626;23.320;2024-02-23T14:34:30;9.97;;;3.97;;
4472;SDS011;2249;42.626;23.320;2024-02-23T14:36:58;5.10;;;3.80;;
4472;SDS011;2249;42.626;23.320;2024-02-23T14:39:24;8.70;;;3.73;;
4472;SDS011;2249;42.626;23.320;2024-02-23T14:41:51;5.20;;;3.50;;